Ship Status Report: callsign VRFV6

sailwx.info

Track history (hours):
 
Tides and Currents Weather Stations Pressure Air Temp Water Temp Dewpoint Dewpoint Depression Visibility Wind Speed Wind Dir Waves Ship Positions

Callsign VRFV6 (name unknown)

Last reported at 2016-Mar-28 22:31 UTC. Time now 2016-Apr-29 04:07 UTC.
Position N 01°17' E 104°08'.
Warning: this ship's position is 31 days out of date.

Date/timePositionNaut miles runAvg speedWind from/ knotsBaromVisibWave heightAir tempDewpointWater temp
2016-Mar-28 22:31N 01°17' E 104°08'  
2016-Mar-23 21:33N 22°32' E 120°08'1110.1
2016-Mar-23 20:26N 22°32' E 120°20'0 0.0
2016-Mar-22 05:16N 22°32' E 120°20'4 5.3
2016-Mar-22 04:33N 22°32' E 120°16'3 2.6
2016-Mar-22 03:33N 22°30' E 120°15'0 0.3
2016-Mar-22 02:30N 22°30' E 120°15'0 0.0
2016-Mar-22 01:24N 22°30' E 120°15'0 0.1
2016-Mar-22 00:30N 22°30' E 120°15'0 0.1
2016-Mar-21 23:30N 22°30' E 120°15'0 0.0
2016-Mar-21 22:30N 22°30' E 120°15'0 0.0
2016-Mar-21 21:30N 22°30' E 120°15'0 0.0
2016-Mar-21 20:30N 22°30' E 120°15'0 0.0
2016-Mar-21 19:18N 22°30' E 120°15'0 0.0
2016-Mar-21 18:30N 22°30' E 120°15'0 0.0
2016-Mar-21 17:30N 22°30' E 120°15'0 0.1
2016-Mar-21 16:30N 22°30' E 120°15'0 0.1
2016-Mar-21 15:30N 22°30' E 120°15'2 2.0
2016-Mar-21 14:33N 22°30' E 120°13'1010.0
2016-Mar-21 13:33N 22°29' E 120°02'30812.8
2016-Mar-20 13:30N 22°04' E 114°31'9 0.9
2016-Mar-20 03:33N 22°06' E 114°22'1211.3
2016-Mar-20 02:29N 22°12' E 114°10'1110.8
2016-Mar-20 01:26N 22°21' E 114°02'  
Track history (hours):
 
Tides and Currents Weather Stations Pressure Air Temp Water Temp Dewpoint Dewpoint Depression Visibility Wind Speed Wind Dir Waves Ship Positions

Callsign VRFV6 (name unknown)

Last reported at 2016-Mar-28 22:31 UTC. Time now 2016-Apr-29 04:07 UTC.
Position N 01°17' E 104°08'.
Warning: this ship's position is 31 days out of date.

Date/timePositionNaut miles runAvg speedWind from/ knotsBaromVisibWave heightAir tempDewpointWater temp
2016-Mar-28 22:31N 01°17' E 104°08'  
2016-Mar-23 21:33N 22°32' E 120°08'1110.1
2016-Mar-23 20:26N 22°32' E 120°20'0 0.0
2016-Mar-22 05:16N 22°32' E 120°20'4 5.3
2016-Mar-22 04:33N 22°32' E 120°16'3 2.6
2016-Mar-22 03:33N 22°30' E 120°15'0 0.3
2016-Mar-22 02:30N 22°30' E 120°15'0 0.0
2016-Mar-22 01:24N 22°30' E 120°15'0 0.1
2016-Mar-22 00:30N 22°30' E 120°15'0 0.1
2016-Mar-21 23:30N 22°30' E 120°15'0 0.0
2016-Mar-21 22:30N 22°30' E 120°15'0 0.0
2016-Mar-21 21:30N 22°30' E 120°15'0 0.0
2016-Mar-21 20:30N 22°30' E 120°15'0 0.0
2016-Mar-21 19:18N 22°30' E 120°15'0 0.0
2016-Mar-21 18:30N 22°30' E 120°15'0 0.0
2016-Mar-21 17:30N 22°30' E 120°15'0 0.1
2016-Mar-21 16:30N 22°30' E 120°15'0 0.1
2016-Mar-21 15:30N 22°30' E 120°15'2 2.0
2016-Mar-21 14:33N 22°30' E 120°13'1010.0
2016-Mar-21 13:33N 22°29' E 120°02'30812.8
2016-Mar-20 13:30N 22°04' E 114°31'9 0.9
2016-Mar-20 03:33N 22°06' E 114°22'1211.3
2016-Mar-20 02:29N 22°12' E 114°10'1110.8
2016-Mar-20 01:26N 22°21' E 114°02'  

Dump ship's entire track history